Ameagle, WV

11:47 AM EDT on July 27, 2016 (GMT -0400)
Joes Creek | | Change Station

Elev 784 ft 38.12 °N, 81.59 °W | Updated 5 minutes ago

Mostly Cloudy
Mostly Cloudy
83.1 °F
Feels Like 93 °F
N
0.0
Wind Variable Wind from South
Gusts 0.0 mph

Today
High -- | Low -- °F
--% Chance of Precip.
Yesterday
High -- | Low -- °F
Precip. -- in
Pressure 30.12 in
Visibility 10.0 miles
Clouds Scattered Clouds 2500 ft
Mostly Cloudy 3200 ft
Mostly Cloudy 4100 ft
Heat Index 93 °F
Dew Point 78 °F
Humidity 85%
Rainfall 0.00 in
Snow Depth Not available.
6:25 AM 8:39 PM
Last Quarter, 42% visible
SPECI KBKW 271537Z AUTO 29006KT 10SM SCT025 BKN032 BKN041 28/21 A3012 RMK AO2 T02780211
Pressure 30.12 in
Visibility 10.0 miles
Clouds Scattered Clouds 2500 ft
Mostly Cloudy 3200 ft
Mostly Cloudy 4100 ft
Heat Index 93 °F
Dew Point 78 °F
Humidity 85%
Rainfall 0.00 in
Snow Depth Not available.
6:25 AM 8:39 PM
Last Quarter, 42% visible
SPECI KBKW 271537Z AUTO 29006KT 10SM SCT025 BKN032 BKN041 28/21 A3012 RMK AO2 T02780211

10-Day Weather Forecast

Almanac

Astronomy

Jul. 27, 2016 Rise Set
Actual Time
Civil Twilight
Nautical Twilight
Astronomical Twilight
Moon
Length of Visible Light
Length of Day
Tomorrow will be .
, % of the Moon is Illuminated

Today's Extremes

State Highs State Lows

Community

WunderPhotos

Upload Photos

1,927,866 photos uploaded!

WunderBlog® & News

Nearby

Air Quality

  Air Quality AQ Index Pollutant
Not available.

Snow Depth

Station Depth Elevation

Earthquake Activity

City Distance Mag. Time & Date
Minimum magnitude displayed is 2.5.

Coastal Water Temperatures

Place Temperature

Stations

Nearby Weather Stations

Station Location Temp. Windchill Dew Point Humidity Wind Precip. Elev Updated Type
                   

Watches & Warnings

There are currently no watches in effect.